Flight Track Log - Related Links

Times and Time Zones

All times are in EDT time to prevent confusion due to time zone crossing. See the EJA933 flight status page for this flight to view local times or setup timezone preferences in your user account.

Time Position Orientation Groundspeed Altitude Reporting Facility
EDT Latitude Longitude Course Direction KTS MPH feet Rate Location/Type
Tue 11:40:18 AM 38.9944 -120.0125 318° Northwest 255 293 11,800  Level Oakland Center
Tue 11:41:19 AM 39.0442 -120.0800 313° West 289 333 13,600 1,805 Climbing Oakland Center
Tue 11:42:21 AM 39.0958 -120.2092 297° West 347 399 15,500 1,805 Climbing Oakland Center
Tue 11:43:22 AM 39.0236 -120.2753 215° Southwest 337 388 17,300 1,672 Climbing Oakland Center
Tue 11:44:23 AM 38.9203 -120.2381 164° South 385 443 18,900 1,610 Climbing Oakland Center
Tue 11:45:00 AM 39.1479 -120.2448 318° Northwest  Level FlightAware Approximate
Tue 11:45:25 AM 38.8158 -120.1994 164° South 388 447 20,600  Level Oakland Center
Tue 11:46:26 AM 38.7089 -120.1614 164° South 395 455 22,400 1,869 Climbing Oakland Center
Tue 11:47:27 AM 38.5986 -120.1211 164° South 407 468 24,400 1,902 Climbing Oakland Center
Tue 11:48:29 AM 38.4861 -120.0800 164° South 413 475 26,300 1,756 Climbing Oakland Center
Tue 11:49:30 AM 38.3697 -120.0381 164° South 425 489 28,000 1,770 Climbing Oakland Center
Tue 11:50:31 AM 38.2489 -119.9947 164° South 443 510 29,900 1,463 Climbing Oakland Center
Tue 11:51:33 AM 38.1247 -119.9508 164° South 455 524 31,000 537 Climbing Oakland Center
Tue 11:52:34 AM 37.9953 -119.9022 164° South 476 548 31,000  Level Oakland Center
Tue 11:53:36 AM 37.8544 -119.8544 165° South 509 586 31,000  Level Oakland Center
Tue 11:54:37 AM 37.6886 -119.7972 165° South 515 593 31,000  Level Oakland Center
Tue 11:55:38 AM 37.5497 -119.7486 164° South 517 595 31,000  Level Oakland Center
Tue 11:56:40 AM 37.4103 -119.7172 170° South 514 592 31,000  Level Oakland Center
Tue 11:57:41 AM 37.2803 -119.7289 184° South 481 554 31,000  Level Oakland Center
Tue 11:58:42 AM 37.1536 -119.7467 186° South 464 534 31,000  Level Oakland Center
Tue 11:59:44 AM 37.0258 -119.7642 186° South 461 531 31,000  Level Oakland Center
Tue 12:00:45 PM 36.8961 -119.7806 186° South 469 540 31,000  Level Oakland Center
Tue 12:01:46 PM 36.7669 -119.7997 187° South 469 540 31,000  Level Oakland Center
Tue 12:02:48 PM 36.6103 -119.8225 187° South 471 542 31,000  Level Oakland Center
Tue 12:03:49 PM 36.4797 -119.8397 186° South 472 543 31,000  Level Oakland Center
Tue 12:04:50 PM 36.3492 -119.8558 186° South 471 542 31,000  Level Oakland Center
Tue 12:05:52 PM 36.2183 -119.8744 187° South 473 544 31,000  Level Oakland Center
Tue 12:06:53 PM 36.0869 -119.8917 186° South 473 544 31,000  Level Oakland Center
Tue 12:07:55 PM 35.9553 -119.9075 186° South 474 545 31,000  Level Oakland Center
Tue 12:08:56 PM 35.8239 -119.9239 186° South 474 545 31,000 -295 Level Oakland Center
Tue 12:09:57 PM 35.6936 -119.9394 186° South 469 540 30,400 -1,561 Descending Oakland Center
Tue 12:10:59 PM 35.5656 -119.9078 169° South 466 536 27,800 -2,878 Descending Oakland Center
Tue 12:12:00 PM 35.4344 -119.8881 173° South 471 542 24,500 -2,732 Descending Oakland Center
Tue 12:13:02 PM 35.3100 -119.9142 190° South 454 522 22,200 -2,439 Descending Oakland Center
Tue 12:14:03 PM 35.1647 -119.9472 191° South 437 503 19,500 -2,410 Descending Oakland Center
Tue 12:15:04 PM 35.0511 -119.9739 191° South 419 482 17,300 -2,244 Descending Oakland Center
Tue 12:16:06 PM 34.9486 -119.9972 191° South 385 443 14,900 -2,390 Descending Oakland Center
Tue 12:17:07 PM 34.8558 -120.0192 191° South 348 400 12,400 -2,016 Descending Oakland Center
Tue 12:18:08 PM 34.7708 -120.0372 190° South 320 368 10,800 -1,561 Descending Oakland Center
Tue 12:19:10 PM 34.6936 -120.0556 191° South 293 337 9,200 -1,113 Descending Oakland Center
Tue 12:19:45 PM 34.6419 -120.0661 190° South 288 331 9,000 -759 Descending Los Angeles Center
Tue 12:20:37 PM 34.5739 -120.0822 191° South 285 328 8,100 -1,579 Descending Los Angeles Center
Tue 12:21:39 PM 34.5014 -120.0814 179° South 268 308 6,000 -1,984 Descending Los Angeles Center
Tue 12:22:41 PM 34.4311 -120.0922 187° South 249 287 4,000 -1,452 Descending Los Angeles Center
Tue 12:23:43 PM 34.3683 -120.1069 191° South 233 268 3,000 -968 Descending Los Angeles Center
Tue 12:24:45 PM 34.3283 -120.0811 152° Southeast 212 244 2,000 -435 Descending Los Angeles Center
Tue 12:26:01 PM 34.3694 -120.0050 57° Northeast 192 221 2,000  Level Los Angeles Center
Tue 12:26:49 PM 34.3989 -119.9681 46° Northeast 191 220 2,000 -382 Level Los Angeles Center
Tue 12:27:51 PM 34.4292 -119.9239 50° Northeast 186 214 1,300 -726 Descending Los Angeles Center
Tue 12:28:53 PM 34.4250 -119.8819 97° East 146 168 500 -480 Descending Los Angeles Center
Tue 12:29:56 PM 34.4222 -119.8422 95° East 141 162 300 -190 Descending Los Angeles Center
Tue 12:31:00 PM 34.4167 -119.8333 66° East  Level FlightAware Approximate

Login

Don't have an account? Register now (free) for customized features, flight alerts, and more!